Terminal Aerodrome Forecast
Issued by NWS

Home | Current Version | Previous Version | Text Only | Print | Product List | Glossary Off
Versions: 1 2 3 4 5 6 7 8 9 10 11 12 13 14 15 16 17 18 19

000
FTUS43 KMPX 150124 AAA
TAFAXN
TAF AMD
KAXN 150124Z 1501/1524 00000KT 1/2SM -DZ FG OVC002
      TEMPO 1503/1506 1/4SM -DZ FG OVC001
     FM150600 31011KT P6SM SCT012 BKN070
     FM150800 30013G21KT P6SM OVC012
     FM151400 31020G28KT P6SM BKN015=

USA.gov is the U.S. government's official web portal to all federal, state and local government web resources and services.